sensor_id;sensor_type;location;lat;lon;timestamp;P1;durP1;ratioP1;P2;durP2;ratioP2
24407;SDS011;12542;50.924;4.516;2023-09-30T00:01:17;11.07;;;4.10;;
24407;SDS011;12542;50.924;4.516;2023-09-30T00:03:43;10.20;;;3.95;;
24407;SDS011;12542;50.924;4.516;2023-09-30T00:06:09;11.18;;;4.00;;
24407;SDS011;12542;50.924;4.516;2023-09-30T00:08:35;9.25;;;4.03;;
24407;SDS011;12542;50.924;4.516;2023-09-30T00:11:01;9.68;;;3.97;;
24407;SDS011;12542;50.924;4.516;2023-09-30T00:13:27;11.57;;;3.95;;
24407;SDS011;12542;50.924;4.516;2023-09-30T00:15:53;10.35;;;3.92;;
24407;SDS011;12542;50.924;4.516;2023-09-30T00:18:19;9.15;;;3.65;;
24407;SDS011;12542;50.924;4.516;2023-09-30T00:20:44;11.02;;;4.10;;
24407;SDS011;12542;50.924;4.516;2023-09-30T00:23:10;9.73;;;3.75;;
24407;SDS011;12542;50.924;4.516;2023-09-30T00:25:36;9.57;;;3.67;;
24407;SDS011;12542;50.924;4.516;2023-09-30T00:28:04;9.57;;;3.88;;
24407;SDS011;12542;50.924;4.516;2023-09-30T00:30:30;9.13;;;3.58;;
24407;SDS011;12542;50.924;4.516;2023-09-30T00:32:55;13.75;;;4.40;;
24407;SDS011;12542;50.924;4.516;2023-09-30T00:35:21;8.32;;;3.83;;
24407;SDS011;12542;50.924;4.516;2023-09-30T00:37:47;9.88;;;3.72;;
24407;SDS011;12542;50.924;4.516;2023-09-30T00:40:14;10.25;;;3.70;;
24407;SDS011;12542;50.924;4.516;2023-09-30T00:42:40;7.03;;;3.75;;
24407;SDS011;12542;50.924;4.516;2023-09-30T00:45:09;9.10;;;3.47;;
24407;SDS011;12542;50.924;4.516;2023-09-30T00:47:37;8.32;;;3.90;;
24407;SDS011;12542;50.924;4.516;2023-09-30T00:50:04;11.38;;;3.58;;
24407;SDS011;12542;50.924;4.516;2023-09-30T00:52:32;5.80;;;3.38;;
24407;SDS011;12542;50.924;4.516;2023-09-30T00:55:00;10.45;;;3.85;;
24407;SDS011;12542;50.924;4.516;2023-09-30T00:57:27;6.55;;;3.25;;
24407;SDS011;12542;50.924;4.516;2023-09-30T00:59:55;8.20;;;4.15;;
24407;SDS011;12542;50.924;4.516;2023-09-30T01:02:22;14.27;;;4.70;;
24407;SDS011;12542;50.924;4.516;2023-09-30T01:04:48;10.65;;;3.70;;
24407;SDS011;12542;50.924;4.516;2023-09-30T01:07:14;6.57;;;3.40;;
24407;SDS011;12542;50.924;4.516;2023-09-30T01:09:40;10.23;;;4.10;;
24407;SDS011;12542;50.924;4.516;2023-09-30T01:12:07;6.28;;;3.55;;
24407;SDS011;12542;50.924;4.516;2023-09-30T01:14:34;11.48;;;4.18;;
24407;SDS011;12542;50.924;4.516;2023-09-30T01:17:00;8.32;;;4.07;;
24407;SDS011;12542;50.924;4.516;2023-09-30T01:19:26;8.48;;;4.07;;
24407;SDS011;12542;50.924;4.516;2023-09-30T01:22:01;10.65;;;4.78;;
24407;SDS011;12542;50.924;4.516;2023-09-30T01:24:31;8.90;;;3.88;;
24407;SDS011;12542;50.924;4.516;2023-09-30T01:27:03;10.35;;;3.88;;
24407;SDS011;12542;50.924;4.516;2023-09-30T01:29:28;12.00;;;4.55;;
24407;SDS011;12542;50.924;4.516;2023-09-30T01:31:55;7.25;;;4.25;;
24407;SDS011;12542;50.924;4.516;2023-09-30T01:34:21;10.88;;;3.95;;
24407;SDS011;12542;50.924;4.516;2023-09-30T01:36:48;12.45;;;4.30;;
24407;SDS011;12542;50.924;4.516;2023-09-30T01:39:14;7.38;;;4.18;;
24407;SDS011;12542;50.924;4.516;2023-09-30T01:41:40;10.05;;;4.70;;
24407;SDS011;12542;50.924;4.516;2023-09-30T01:44:06;14.15;;;4.20;;
24407;SDS011;12542;50.924;4.516;2023-09-30T01:46:34;8.70;;;4.45;;
24407;SDS011;12542;50.924;4.516;2023-09-30T01:49:01;11.52;;;5.20;;
24407;SDS011;12542;50.924;4.516;2023-09-30T01:51:28;9.80;;;4.70;;
24407;SDS011;12542;50.924;4.516;2023-09-30T01:53:54;10.65;;;5.13;;
24407;SDS011;12542;50.924;4.516;2023-09-30T01:56:20;12.93;;;5.20;;
24407;SDS011;12542;50.924;4.516;2023-09-30T01:58:45;8.38;;;4.57;;
24407;SDS011;12542;50.924;4.516;2023-09-30T02:01:11;8.57;;;4.80;;
24407;SDS011;12542;50.924;4.516;2023-09-30T02:03:37;11.77;;;5.15;;
24407;SDS011;12542;50.924;4.516;2023-09-30T02:06:03;12.27;;;5.30;;
24407;SDS011;12542;50.924;4.516;2023-09-30T02:08:30;10.38;;;5.57;;
24407;SDS011;12542;50.924;4.516;2023-09-30T02:10:56;10.95;;;5.18;;
24407;SDS011;12542;50.924;4.516;2023-09-30T02:13:22;9.85;;;5.28;;
24407;SDS011;12542;50.924;4.516;2023-09-30T02:15:50;9.98;;;5.18;;
24407;SDS011;12542;50.924;4.516;2023-09-30T02:18:16;9.65;;;4.78;;
24407;SDS011;12542;50.924;4.516;2023-09-30T02:20:42;8.30;;;4.70;;
24407;SDS011;12542;50.924;4.516;2023-09-30T02:23:10;13.80;;;5.88;;
24407;SDS011;12542;50.924;4.516;2023-09-30T02:25:36;11.35;;;5.13;;
24407;SDS011;12542;50.924;4.516;2023-09-30T02:28:03;10.23;;;5.00;;
24407;SDS011;12542;50.924;4.516;2023-09-30T02:30:29;11.77;;;4.88;;
24407;SDS011;12542;50.924;4.516;2023-09-30T02:32:56;9.27;;;5.05;;
24407;SDS011;12542;50.924;4.516;2023-09-30T02:35:22;10.10;;;5.03;;
24407;SDS011;12542;50.924;4.516;2023-09-30T02:37:48;10.10;;;5.00;;
24407;SDS011;12542;50.924;4.516;2023-09-30T02:40:16;9.35;;;4.82;;
24407;SDS011;12542;50.924;4.516;2023-09-30T02:42:42;10.70;;;4.72;;
24407;SDS011;12542;50.924;4.516;2023-09-30T02:45:12;9.10;;;4.78;;
24407;SDS011;12542;50.924;4.516;2023-09-30T02:47:42;12.25;;;5.05;;
24407;SDS011;12542;50.924;4.516;2023-09-30T02:50:08;12.00;;;5.35;;
24407;SDS011;12542;50.924;4.516;2023-09-30T02:52:36;15.45;;;5.65;;
24407;SDS011;12542;50.924;4.516;2023-09-30T02:55:06;9.32;;;5.60;;
24407;SDS011;12542;50.924;4.516;2023-09-30T02:57:35;8.45;;;4.10;;
24407;SDS011;12542;50.924;4.516;2023-09-30T03:00:04;12.70;;;4.65;;
24407;SDS011;12542;50.924;4.516;2023-09-30T03:02:54;11.80;;;4.80;;
24407;SDS011;12542;50.924;4.516;2023-09-30T03:05:21;10.75;;;5.18;;
24407;SDS011;12542;50.924;4.516;2023-09-30T03:07:48;10.00;;;5.32;;
24407;SDS011;12542;50.924;4.516;2023-09-30T03:10:15;12.07;;;5.05;;
24407;SDS011;12542;50.924;4.516;2023-09-30T03:12:48;7.75;;;4.55;;
24407;SDS011;12542;50.924;4.516;2023-09-30T03:15:14;10.60;;;5.05;;
24407;SDS011;12542;50.924;4.516;2023-09-30T03:17:41;11.45;;;4.45;;
24407;SDS011;12542;50.924;4.516;2023-09-30T03:20:07;11.90;;;5.65;;
24407;SDS011;12542;50.924;4.516;2023-09-30T03:22:37;9.50;;;4.25;;
24407;SDS011;12542;50.924;4.516;2023-09-30T03:25:04;9.70;;;5.40;;
24407;SDS011;12542;50.924;4.516;2023-09-30T03:27:32;10.57;;;4.95;;
24407;SDS011;12542;50.924;4.516;2023-09-30T03:29:58;9.63;;;4.75;;
24407;SDS011;12542;50.924;4.516;2023-09-30T03:32:26;10.20;;;4.93;;
24407;SDS011;12542;50.924;4.516;2023-09-30T03:34:52;13.15;;;5.22;;
24407;SDS011;12542;50.924;4.516;2023-09-30T03:37:17;12.60;;;5.50;;
24407;SDS011;12542;50.924;4.516;2023-09-30T03:39:45;11.85;;;5.07;;
24407;SDS011;12542;50.924;4.516;2023-09-30T03:42:14;12.55;;;5.68;;
24407;SDS011;12542;50.924;4.516;2023-09-30T03:44:40;12.48;;;6.13;;
24407;SDS011;12542;50.924;4.516;2023-09-30T03:47:06;12.75;;;4.75;;
24407;SDS011;12542;50.924;4.516;2023-09-30T03:49:33;11.10;;;5.05;;
24407;SDS011;12542;50.924;4.516;2023-09-30T03:51:59;13.05;;;4.93;;
24407;SDS011;12542;50.924;4.516;2023-09-30T03:54:26;12.93;;;4.85;;
24407;SDS011;12542;50.924;4.516;2023-09-30T03:56:55;12.88;;;5.05;;
24407;SDS011;12542;50.924;4.516;2023-09-30T03:59:20;7.53;;;4.35;;
24407;SDS011;12542;50.924;4.516;2023-09-30T04:01:46;11.85;;;5.28;;
24407;SDS011;12542;50.924;4.516;2023-09-30T04:04:14;8.65;;;4.40;;
24407;SDS011;12542;50.924;4.516;2023-09-30T04:06:40;16.00;;;5.35;;
24407;SDS011;12542;50.924;4.516;2023-09-30T04:09:06;10.88;;;4.80;;
24407;SDS011;12542;50.924;4.516;2023-09-30T04:11:38;12.55;;;6.00;;
24407;SDS011;12542;50.924;4.516;2023-09-30T04:14:07;12.30;;;5.45;;
24407;SDS011;12542;50.924;4.516;2023-09-30T04:16:34;12.98;;;5.38;;
24407;SDS011;12542;50.924;4.516;2023-09-30T04:19:02;9.30;;;5.30;;
24407;SDS011;12542;50.924;4.516;2023-09-30T04:21:28;18.35;;;4.70;;
24407;SDS011;12542;50.924;4.516;2023-09-30T04:23:57;14.43;;;5.60;;
24407;SDS011;12542;50.924;4.516;2023-09-30T04:26:24;11.55;;;5.45;;
24407;SDS011;12542;50.924;4.516;2023-09-30T04:28:50;13.98;;;5.53;;
24407;SDS011;12542;50.924;4.516;2023-09-30T04:31:16;13.80;;;5.00;;
24407;SDS011;12542;50.924;4.516;2023-09-30T04:33:43;12.98;;;5.03;;
24407;SDS011;12542;50.924;4.516;2023-09-30T04:36:08;12.10;;;4.35;;
24407;SDS011;12542;50.924;4.516;2023-09-30T04:38:35;8.02;;;4.18;;
24407;SDS011;12542;50.924;4.516;2023-09-30T04:41:04;10.48;;;4.95;;
24407;SDS011;12542;50.924;4.516;2023-09-30T04:43:32;10.13;;;5.20;;
24407;SDS011;12542;50.924;4.516;2023-09-30T04:45:58;13.27;;;5.55;;
24407;SDS011;12542;50.924;4.516;2023-09-30T04:48:24;14.52;;;5.35;;
24407;SDS011;12542;50.924;4.516;2023-09-30T04:50:50;13.57;;;5.57;;
24407;SDS011;12542;50.924;4.516;2023-09-30T04:53:17;14.88;;;5.45;;
24407;SDS011;12542;50.924;4.516;2023-09-30T04:55:46;17.15;;;5.78;;
24407;SDS011;12542;50.924;4.516;2023-09-30T04:58:15;12.02;;;4.70;;
24407;SDS011;12542;50.924;4.516;2023-09-30T05:00:42;14.18;;;5.40;;
24407;SDS011;12542;50.924;4.516;2023-09-30T05:03:08;14.38;;;6.93;;
24407;SDS011;12542;50.924;4.516;2023-09-30T05:05:36;15.48;;;6.45;;
24407;SDS011;12542;50.924;4.516;2023-09-30T05:08:02;16.27;;;7.18;;
24407;SDS011;12542;50.924;4.516;2023-09-30T05:10:28;17.27;;;7.25;;
24407;SDS011;12542;50.924;4.516;2023-09-30T05:12:56;16.23;;;7.22;;
24407;SDS011;12542;50.924;4.516;2023-09-30T05:15:22;17.98;;;7.38;;
24407;SDS011;12542;50.924;4.516;2023-09-30T05:17:48;20.80;;;7.00;;
24407;SDS011;12542;50.924;4.516;2023-09-30T05:20:14;15.98;;;7.57;;
24407;SDS011;12542;50.924;4.516;2023-09-30T05:22:42;17.05;;;7.40;;
24407;SDS011;12542;50.924;4.516;2023-09-30T05:25:11;14.48;;;6.65;;
24407;SDS011;12542;50.924;4.516;2023-09-30T05:27:38;22.42;;;7.80;;
24407;SDS011;12542;50.924;4.516;2023-09-30T05:30:04;20.42;;;6.80;;
24407;SDS011;12542;50.924;4.516;2023-09-30T05:32:31;27.50;;;9.00;;
24407;SDS011;12542;50.924;4.516;2023-09-30T05:34:57;20.80;;;6.53;;
24407;SDS011;12542;50.924;4.516;2023-09-30T05:37:25;23.50;;;7.22;;
24407;SDS011;12542;50.924;4.516;2023-09-30T05:39:51;19.83;;;7.22;;
24407;SDS011;12542;50.924;4.516;2023-09-30T05:42:17;22.02;;;7.53;;
24407;SDS011;12542;50.924;4.516;2023-09-30T05:44:43;24.60;;;7.75;;
24407;SDS011;12542;50.924;4.516;2023-09-30T05:47:10;19.23;;;7.38;;
24407;SDS011;12542;50.924;4.516;2023-09-30T05:49:37;21.95;;;7.40;;
24407;SDS011;12542;50.924;4.516;2023-09-30T05:52:03;23.67;;;7.05;;
24407;SDS011;12542;50.924;4.516;2023-09-30T05:54:30;21.58;;;7.20;;
24407;SDS011;12542;50.924;4.516;2023-09-30T05:56:56;21.08;;;6.82;;
24407;SDS011;12542;50.924;4.516;2023-09-30T05:59:21;26.50;;;7.35;;
24407;SDS011;12542;50.924;4.516;2023-09-30T06:01:50;22.05;;;7.63;;
24407;SDS011;12542;50.924;4.516;2023-09-30T06:04:15;19.80;;;6.75;;
24407;SDS011;12542;50.924;4.516;2023-09-30T06:06:41;15.35;;;5.93;;
24407;SDS011;12542;50.924;4.516;2023-09-30T06:09:08;17.40;;;6.95;;
24407;SDS011;12542;50.924;4.516;2023-09-30T06:11:34;26.15;;;6.68;;
24407;SDS011;12542;50.924;4.516;2023-09-30T06:14:01;22.20;;;6.75;;
24407;SDS011;12542;50.924;4.516;2023-09-30T06:16:28;26.35;;;8.85;;
24407;SDS011;12542;50.924;4.516;2023-09-30T06:18:56;21.50;;;7.13;;
24407;SDS011;12542;50.924;4.516;2023-09-30T06:21:23;20.15;;;7.05;;
24407;SDS011;12542;50.924;4.516;2023-09-30T06:23:50;15.43;;;6.07;;
24407;SDS011;12542;50.924;4.516;2023-09-30T06:26:18;22.73;;;7.20;;
24407;SDS011;12542;50.924;4.516;2023-09-30T06:28:46;20.20;;;7.22;;
24407;SDS011;12542;50.924;4.516;2023-09-30T06:31:13;18.60;;;6.40;;
24407;SDS011;12542;50.924;4.516;2023-09-30T06:33:39;18.30;;;6.32;;
24407;SDS011;12542;50.924;4.516;2023-09-30T06:36:11;19.10;;;6.18;;
24407;SDS011;12542;50.924;4.516;2023-09-30T06:38:39;22.52;;;7.25;;
24407;SDS011;12542;50.924;4.516;2023-09-30T06:41:06;23.48;;;6.80;;
24407;SDS011;12542;50.924;4.516;2023-09-30T06:43:33;16.50;;;6.05;;
24407;SDS011;12542;50.924;4.516;2023-09-30T06:46:05;15.98;;;6.18;;
24407;SDS011;12542;50.924;4.516;2023-09-30T06:48:38;13.18;;;5.75;;
24407;SDS011;12542;50.924;4.516;2023-09-30T06:51:07;19.55;;;6.53;;
24407;SDS011;12542;50.924;4.516;2023-09-30T06:53:39;15.30;;;5.75;;
24407;SDS011;12542;50.924;4.516;2023-09-30T06:56:05;17.60;;;5.72;;
24407;SDS011;12542;50.924;4.516;2023-09-30T06:58:31;19.15;;;6.60;;
24407;SDS011;12542;50.924;4.516;2023-09-30T07:00:57;20.33;;;6.57;;
24407;SDS011;12542;50.924;4.516;2023-09-30T07:03:22;19.10;;;6.50;;
24407;SDS011;12542;50.924;4.516;2023-09-30T07:05:48;14.25;;;5.43;;
24407;SDS011;12542;50.924;4.516;2023-09-30T07:08:19;15.38;;;5.75;;
24407;SDS011;12542;50.924;4.516;2023-09-30T07:10:46;16.48;;;5.45;;
24407;SDS011;12542;50.924;4.516;2023-09-30T07:13:17;16.60;;;5.93;;
24407;SDS011;12542;50.924;4.516;2023-09-30T07:15:43;11.90;;;5.13;;
24407;SDS011;12542;50.924;4.516;2023-09-30T07:18:08;16.10;;;4.82;;
24407;SDS011;12542;50.924;4.516;2023-09-30T07:20:34;15.30;;;5.03;;
24407;SDS011;12542;50.924;4.516;2023-09-30T07:23:00;16.05;;;5.30;;
24407;SDS011;12542;50.924;4.516;2023-09-30T07:25:27;13.57;;;5.22;;
24407;SDS011;12542;50.924;4.516;2023-09-30T07:27:53;12.50;;;5.50;;
24407;SDS011;12542;50.924;4.516;2023-09-30T07:30:18;13.93;;;5.22;;
24407;SDS011;12542;50.924;4.516;2023-09-30T07:32:44;15.27;;;4.97;;
24407;SDS011;12542;50.924;4.516;2023-09-30T07:35:12;12.57;;;5.00;;
24407;SDS011;12542;50.924;4.516;2023-09-30T07:37:40;19.88;;;5.78;;
24407;SDS011;12542;50.924;4.516;2023-09-30T07:40:06;13.43;;;5.50;;
24407;SDS011;12542;50.924;4.516;2023-09-30T07:42:33;16.02;;;5.22;;
24407;SDS011;12542;50.924;4.516;2023-09-30T07:44:59;12.38;;;3.92;;
24407;SDS011;12542;50.924;4.516;2023-09-30T07:47:25;12.82;;;4.65;;
24407;SDS011;12542;50.924;4.516;2023-09-30T07:49:51;17.50;;;4.60;;
24407;SDS011;12542;50.924;4.516;2023-09-30T07:52:17;17.60;;;5.18;;
24407;SDS011;12542;50.924;4.516;2023-09-30T07:54:42;15.88;;;5.00;;
24407;SDS011;12542;50.924;4.516;2023-09-30T07:57:08;16.80;;;5.05;;
24407;SDS011;12542;50.924;4.516;2023-09-30T07:59:34;14.32;;;4.82;;
24407;SDS011;12542;50.924;4.516;2023-09-30T08:02:00;18.90;;;5.05;;
24407;SDS011;12542;50.924;4.516;2023-09-30T08:04:29;14.20;;;4.93;;
24407;SDS011;12542;50.924;4.516;2023-09-30T08:06:56;17.33;;;5.43;;
24407;SDS011;12542;50.924;4.516;2023-09-30T08:09:22;20.70;;;5.82;;
24407;SDS011;12542;50.924;4.516;2023-09-30T08:11:49;14.43;;;4.82;;
24407;SDS011;12542;50.924;4.516;2023-09-30T08:14:15;16.90;;;4.90;;
24407;SDS011;12542;50.924;4.516;2023-09-30T08:16:41;19.45;;;4.57;;
24407;SDS011;12542;50.924;4.516;2023-09-30T08:19:08;19.85;;;5.55;;
24407;SDS011;12542;50.924;4.516;2023-09-30T08:21:34;17.40;;;4.40;;
24407;SDS011;12542;50.924;4.516;2023-09-30T08:23:59;19.52;;;4.68;;
24407;SDS011;12542;50.924;4.516;2023-09-30T08:26:26;16.02;;;4.72;;
24407;SDS011;12542;50.924;4.516;2023-09-30T08:28:52;16.75;;;4.65;;
24407;SDS011;12542;50.924;4.516;2023-09-30T08:31:18;15.23;;;5.35;;
24407;SDS011;12542;50.924;4.516;2023-09-30T08:33:44;15.63;;;4.53;;
24407;SDS011;12542;50.924;4.516;2023-09-30T08:36:11;16.00;;;4.50;;
24407;SDS011;12542;50.924;4.516;2023-09-30T08:38:37;13.77;;;4.63;;
24407;SDS011;12542;50.924;4.516;2023-09-30T08:41:04;14.00;;;4.30;;
24407;SDS011;12542;50.924;4.516;2023-09-30T08:43:30;15.95;;;4.03;;
24407;SDS011;12542;50.924;4.516;2023-09-30T08:46:04;18.15;;;4.10;;
24407;SDS011;12542;50.924;4.516;2023-09-30T08:48:34;16.67;;;5.00;;
24407;SDS011;12542;50.924;4.516;2023-09-30T08:51:00;17.20;;;4.55;;
24407;SDS011;12542;50.924;4.516;2023-09-30T08:53:28;25.45;;;4.78;;
24407;SDS011;12542;50.924;4.516;2023-09-30T08:55:55;23.05;;;4.75;;
24407;SDS011;12542;50.924;4.516;2023-09-30T08:58:24;16.40;;;4.50;;
24407;SDS011;12542;50.924;4.516;2023-09-30T09:00:51;14.20;;;4.18;;
24407;SDS011;12542;50.924;4.516;2023-09-30T09:03:20;24.35;;;4.68;;
24407;SDS011;12542;50.924;4.516;2023-09-30T09:05:46;17.33;;;3.70;;
24407;SDS011;12542;50.924;4.516;2023-09-30T09:08:20;17.52;;;4.00;;
24407;SDS011;12542;50.924;4.516;2023-09-30T09:13:21;13.80;;;3.40;;
24407;SDS011;12542;50.924;4.516;2023-09-30T09:15:47;15.30;;;3.45;;
24407;SDS011;12542;50.924;4.516;2023-09-30T09:18:17;13.98;;;3.00;;
24407;SDS011;12542;50.924;4.516;2023-09-30T09:23:53;15.73;;;3.40;;
24407;SDS011;12542;50.924;4.516;2023-09-30T09:26:26;14.05;;;3.55;;
24407;SDS011;12542;50.924;4.516;2023-09-30T09:28:58;14.07;;;3.13;;
24407;SDS011;12542;50.924;4.516;2023-09-30T09:31:29;12.38;;;3.20;;
24407;SDS011;12542;50.924;4.516;2023-09-30T09:33:57;12.10;;;3.28;;
24407;SDS011;12542;50.924;4.516;2023-09-30T09:36:38;13.23;;;3.50;;
24407;SDS011;12542;50.924;4.516;2023-09-30T09:39:09;14.27;;;4.20;;
24407;SDS011;12542;50.924;4.516;2023-09-30T09:41:54;11.95;;;3.38;;
24407;SDS011;12542;50.924;4.516;2023-09-30T09:44:22;11.32;;;3.63;;
24407;SDS011;12542;50.924;4.516;2023-09-30T09:46:50;14.35;;;3.45;;
24407;SDS011;12542;50.924;4.516;2023-09-30T09:49:16;9.35;;;3.25;;
24407;SDS011;12542;50.924;4.516;2023-09-30T09:51:46;12.05;;;2.95;;
24407;SDS011;12542;50.924;4.516;2023-09-30T09:54:13;12.70;;;3.55;;
24407;SDS011;12542;50.924;4.516;2023-09-30T09:56:41;10.70;;;3.22;;
24407;SDS011;12542;50.924;4.516;2023-09-30T09:59:13;11.00;;;3.22;;
24407;SDS011;12542;50.924;4.516;2023-09-30T10:01:39;14.52;;;3.53;;
24407;SDS011;12542;50.924;4.516;2023-09-30T10:04:10;12.60;;;2.90;;
24407;SDS011;12542;50.924;4.516;2023-09-30T10:06:36;10.27;;;3.00;;
24407;SDS011;12542;50.924;4.516;2023-09-30T10:09:06;8.48;;;2.63;;
24407;SDS011;12542;50.924;4.516;2023-09-30T10:11:35;15.38;;;3.83;;
24407;SDS011;12542;50.924;4.516;2023-09-30T10:14:01;12.65;;;3.58;;
24407;SDS011;12542;50.924;4.516;2023-09-30T10:19:13;7.40;;;2.63;;
24407;SDS011;12542;50.924;4.516;2023-09-30T10:21:39;11.60;;;3.30;;
24407;SDS011;12542;50.924;4.516;2023-09-30T10:40:37;12.90;;;3.30;;
24407;SDS011;12542;50.924;4.516;2023-09-30T10:43:03;8.57;;;3.17;;
24407;SDS011;12542;50.924;4.516;2023-09-30T10:50:55;10.43;;;2.63;;
24407;SDS011;12542;50.924;4.516;2023-09-30T10:53:25;12.30;;;3.58;;
24407;SDS011;12542;50.924;4.516;2023-09-30T10:55:59;7.90;;;3.03;;
24407;SDS011;12542;50.924;4.516;2023-09-30T10:58:41;9.07;;;2.42;;
24407;SDS011;12542;50.924;4.516;2023-09-30T11:01:09;9.25;;;2.95;;
24407;SDS011;12542;50.924;4.516;2023-09-30T11:03:35;10.25;;;2.72;;
24407;SDS011;12542;50.924;4.516;2023-09-30T11:06:01;8.73;;;2.50;;
24407;SDS011;12542;50.924;4.516;2023-09-30T11:08:29;11.77;;;3.30;;
24407;SDS011;12542;50.924;4.516;2023-09-30T11:10:55;10.18;;;3.00;;
24407;SDS011;12542;50.924;4.516;2023-09-30T11:13:21;8.40;;;2.65;;
24407;SDS011;12542;50.924;4.516;2023-09-30T11:15:47;11.30;;;2.97;;
24407;SDS011;12542;50.924;4.516;2023-09-30T11:18:25;9.23;;;2.75;;
24407;SDS011;12542;50.924;4.516;2023-09-30T11:20:53;9.75;;;3.05;;
24407;SDS011;12542;50.924;4.516;2023-09-30T11:23:36;9.60;;;2.33;;
24407;SDS011;12542;50.924;4.516;2023-09-30T11:26:05;10.70;;;2.60;;
24407;SDS011;12542;50.924;4.516;2023-09-30T11:28:38;10.38;;;2.83;;
24407;SDS011;12542;50.924;4.516;2023-09-30T11:31:09;11.20;;;3.25;;
24407;SDS011;12542;50.924;4.516;2023-09-30T11:33:53;9.60;;;2.80;;
24407;SDS011;12542;50.924;4.516;2023-09-30T11:36:21;17.30;;;2.92;;
24407;SDS011;12542;50.924;4.516;2023-09-30T11:38:48;10.73;;;2.80;;
24407;SDS011;12542;50.924;4.516;2023-09-30T11:41:15;7.93;;;2.08;;
24407;SDS011;12542;50.924;4.516;2023-09-30T11:43:59;11.23;;;2.33;;
24407;SDS011;12542;50.924;4.516;2023-09-30T11:46:55;6.38;;;2.00;;
24407;SDS011;12542;50.924;4.516;2023-09-30T11:52:01;9.05;;;2.40;;
24407;SDS011;12542;50.924;4.516;2023-09-30T11:54:35;9.23;;;2.78;;
24407;SDS011;12542;50.924;4.516;2023-09-30T11:57:13;8.27;;;2.10;;
24407;SDS011;12542;50.924;4.516;2023-09-30T11:59:46;8.93;;;2.38;;
24407;SDS011;12542;50.924;4.516;2023-09-30T12:02:12;11.85;;;2.80;;
24407;SDS011;12542;50.924;4.516;2023-09-30T12:04:42;12.77;;;3.20;;
24407;SDS011;12542;50.924;4.516;2023-09-30T12:07:10;9.23;;;2.55;;
24407;SDS011;12542;50.924;4.516;2023-09-30T12:09:36;11.40;;;3.10;;
24407;SDS011;12542;50.924;4.516;2023-09-30T12:12:02;7.68;;;2.70;;
24407;SDS011;12542;50.924;4.516;2023-09-30T12:14:30;12.90;;;2.85;;
24407;SDS011;12542;50.924;4.516;2023-09-30T12:16:56;8.25;;;2.60;;
24407;SDS011;12542;50.924;4.516;2023-09-30T12:19:22;11.02;;;2.85;;
24407;SDS011;12542;50.924;4.516;2023-09-30T12:21:48;8.98;;;2.67;;
24407;SDS011;12542;50.924;4.516;2023-09-30T12:24:14;11.70;;;3.05;;
24407;SDS011;12542;50.924;4.516;2023-09-30T12:26:45;9.30;;;2.50;;
24407;SDS011;12542;50.924;4.516;2023-09-30T12:29:17;9.77;;;2.35;;
24407;SDS011;12542;50.924;4.516;2023-09-30T12:31:44;6.78;;;2.50;;
24407;SDS011;12542;50.924;4.516;2023-09-30T12:34:10;7.55;;;2.53;;
24407;SDS011;12542;50.924;4.516;2023-09-30T12:36:37;8.00;;;2.30;;
24407;SDS011;12542;50.924;4.516;2023-09-30T12:39:04;11.18;;;2.45;;
24407;SDS011;12542;50.924;4.516;2023-09-30T12:41:45;9.18;;;2.67;;
24407;SDS011;12542;50.924;4.516;2023-09-30T12:46:36;9.00;;;2.63;;
24407;SDS011;12542;50.924;4.516;2023-09-30T12:49:04;12.20;;;3.30;;
24407;SDS011;12542;50.924;4.516;2023-09-30T12:51:31;13.95;;;2.90;;
24407;SDS011;12542;50.924;4.516;2023-09-30T12:53:57;6.53;;;2.08;;
24407;SDS011;12542;50.924;4.516;2023-09-30T12:56:23;9.13;;;2.47;;
24407;SDS011;12542;50.924;4.516;2023-09-30T12:58:49;10.38;;;2.97;;
24407;SDS011;12542;50.924;4.516;2023-09-30T13:01:15;7.53;;;2.35;;
24407;SDS011;12542;50.924;4.516;2023-09-30T13:03:43;8.27;;;2.40;;
24407;SDS011;12542;50.924;4.516;2023-09-30T13:06:09;8.88;;;2.35;;
24407;SDS011;12542;50.924;4.516;2023-09-30T13:08:35;12.27;;;2.47;;
24407;SDS011;12542;50.924;4.516;2023-09-30T13:11:01;7.72;;;2.50;;
24407;SDS011;12542;50.924;4.516;2023-09-30T13:13:28;10.13;;;2.25;;
24407;SDS011;12542;50.924;4.516;2023-09-30T13:15:56;9.43;;;2.55;;
24407;SDS011;12542;50.924;4.516;2023-09-30T13:18:22;7.55;;;1.90;;
24407;SDS011;12542;50.924;4.516;2023-09-30T13:20:48;8.52;;;2.55;;
24407;SDS011;12542;50.924;4.516;2023-09-30T13:23:14;8.32;;;2.22;;
24407;SDS011;12542;50.924;4.516;2023-09-30T13:25:40;9.05;;;2.20;;
24407;SDS011;12542;50.924;4.516;2023-09-30T13:28:05;7.15;;;2.20;;
24407;SDS011;12542;50.924;4.516;2023-09-30T13:30:31;8.35;;;2.28;;
24407;SDS011;12542;50.924;4.516;2023-09-30T13:32:57;8.18;;;2.20;;
24407;SDS011;12542;50.924;4.516;2023-09-30T13:35:23;7.93;;;1.95;;
24407;SDS011;12542;50.924;4.516;2023-09-30T13:37:49;7.85;;;2.08;;
24407;SDS011;12542;50.924;4.516;2023-09-30T13:40:14;7.50;;;2.22;;
24407;SDS011;12542;50.924;4.516;2023-09-30T13:42:40;7.40;;;2.25;;
24407;SDS011;12542;50.924;4.516;2023-09-30T13:45:07;8.55;;;2.28;;
24407;SDS011;12542;50.924;4.516;2023-09-30T13:47:33;8.05;;;2.20;;
24407;SDS011;12542;50.924;4.516;2023-09-30T13:50:00;8.98;;;2.30;;
24407;SDS011;12542;50.924;4.516;2023-09-30T13:52:26;7.53;;;2.38;;
24407;SDS011;12542;50.924;4.516;2023-09-30T13:54:51;11.02;;;2.10;;
24407;SDS011;12542;50.924;4.516;2023-09-30T13:57:17;8.65;;;2.17;;
24407;SDS011;12542;50.924;4.516;2023-09-30T13:59:43;11.18;;;2.53;;
24407;SDS011;12542;50.924;4.516;2023-09-30T14:02:11;8.73;;;2.25;;
24407;SDS011;12542;50.924;4.516;2023-09-30T14:04:37;6.57;;;1.75;;
24407;SDS011;12542;50.924;4.516;2023-09-30T14:07:03;7.72;;;1.92;;
24407;SDS011;12542;50.924;4.516;2023-09-30T14:09:30;7.65;;;2.60;;
24407;SDS011;12542;50.924;4.516;2023-09-30T14:11:56;6.90;;;2.10;;
24407;SDS011;12542;50.924;4.516;2023-09-30T14:14:23;9.10;;;2.42;;
24407;SDS011;12542;50.924;4.516;2023-09-30T14:16:50;6.95;;;1.92;;
24407;SDS011;12542;50.924;4.516;2023-09-30T14:19:15;5.97;;;2.40;;
24407;SDS011;12542;50.924;4.516;2023-09-30T14:21:41;7.68;;;1.70;;
24407;SDS011;12542;50.924;4.516;2023-09-30T14:24:07;6.90;;;2.28;;
24407;SDS011;12542;50.924;4.516;2023-09-30T14:26:33;10.07;;;2.63;;
24407;SDS011;12542;50.924;4.516;2023-09-30T14:28:59;9.05;;;2.10;;
24407;SDS011;12542;50.924;4.516;2023-09-30T14:31:25;15.15;;;2.95;;
24407;SDS011;12542;50.924;4.516;2023-09-30T14:33:50;8.82;;;2.33;;
24407;SDS011;12542;50.924;4.516;2023-09-30T14:36:16;6.78;;;2.00;;
24407;SDS011;12542;50.924;4.516;2023-09-30T14:38:43;9.45;;;2.33;;
24407;SDS011;12542;50.924;4.516;2023-09-30T14:41:10;7.97;;;1.80;;
24407;SDS011;12542;50.924;4.516;2023-09-30T14:43:37;11.65;;;2.85;;
24407;SDS011;12542;50.924;4.516;2023-09-30T14:46:03;8.48;;;2.10;;
24407;SDS011;12542;50.924;4.516;2023-09-30T14:48:29;6.90;;;1.70;;
24407;SDS011;12542;50.924;4.516;2023-09-30T14:50:55;8.73;;;2.20;;
24407;SDS011;12542;50.924;4.516;2023-09-30T14:53:22;8.82;;;2.30;;
24407;SDS011;12542;50.924;4.516;2023-09-30T14:55:48;5.63;;;1.95;;
24407;SDS011;12542;50.924;4.516;2023-09-30T14:58:16;8.15;;;2.13;;
24407;SDS011;12542;50.924;4.516;2023-09-30T15:00:44;7.43;;;2.25;;
24407;SDS011;12542;50.924;4.516;2023-09-30T15:03:10;7.60;;;2.13;;
24407;SDS011;12542;50.924;4.516;2023-09-30T15:05:36;5.88;;;1.90;;
24407;SDS011;12542;50.924;4.516;2023-09-30T15:08:01;10.50;;;2.35;;
24407;SDS011;12542;50.924;4.516;2023-09-30T15:10:28;6.95;;;2.35;;
24407;SDS011;12542;50.924;4.516;2023-09-30T15:12:54;6.53;;;1.95;;
24407;SDS011;12542;50.924;4.516;2023-09-30T15:15:20;8.30;;;2.55;;